createdAt,value
2023-03-24T00:02:24.069Z,18.61
2023-03-24T00:04:58.768Z,18.63
2023-03-24T00:07:35.372Z,18.64
2023-03-24T00:10:11.352Z,18.66
2023-03-24T00:12:43.921Z,18.65
2023-03-24T00:15:19.691Z,18.67
2023-03-24T00:17:53.236Z,18.68
2023-03-24T00:20:26.716Z,18.69
2023-03-24T00:23:02.110Z,18.70
2023-03-24T00:25:36.500Z,18.71
2023-03-24T00:28:11.256Z,18.71
2023-03-24T00:30:52.030Z,18.70
2023-03-24T00:33:28.527Z,18.69
2023-03-24T00:36:04.090Z,18.66
2023-03-24T00:38:36.879Z,18.64
2023-03-24T00:41:12.111Z,18.61
2023-03-24T00:43:46.117Z,18.61
2023-03-24T00:46:30.101Z,18.62
2023-03-24T00:49:06.344Z,18.60
2023-03-24T00:51:39.877Z,18.57
2023-03-24T00:54:14.117Z,18.57
2023-03-24T00:56:50.509Z,18.57
2023-03-24T00:59:24.859Z,18.56
2023-03-24T01:01:58.008Z,18.56
2023-03-24T01:04:32.089Z,18.57
2023-03-24T01:07:04.723Z,18.58
2023-03-24T01:09:39.129Z,18.60
2023-03-24T01:12:11.664Z,18.62
2023-03-24T01:14:44.367Z,18.64
2023-03-24T01:17:16.487Z,18.68
2023-03-24T01:19:48.848Z,18.68
2023-03-24T01:22:21.878Z,18.68
2023-03-24T01:24:54.652Z,18.69
2023-03-24T01:27:29.637Z,18.68
2023-03-24T01:30:05.747Z,18.69
2023-03-24T01:32:38.950Z,18.68
2023-03-24T01:35:12.916Z,18.69
2023-03-24T01:37:45.477Z,18.69
2023-03-24T01:40:22.333Z,18.70
2023-03-24T01:42:57.589Z,18.70
2023-03-24T01:46:08.062Z,18.71
2023-03-24T01:48:46.753Z,18.71
2023-03-24T01:51:23.852Z,18.70
2023-03-24T01:53:59.356Z,18.69
2023-03-24T01:56:38.158Z,18.67
2023-03-24T01:59:13.868Z,18.68
2023-03-24T02:01:49.363Z,18.67
2023-03-24T02:04:25.856Z,18.67
2023-03-24T02:06:58.673Z,18.67
2023-03-24T02:09:31.038Z,18.68
2023-03-24T02:12:05.240Z,18.65
2023-03-24T02:14:38.563Z,18.63
2023-03-24T02:17:26.296Z,18.59
2023-03-24T02:20:29.918Z,18.56
2023-03-24T02:23:34.730Z,18.55
2023-03-24T02:26:28.769Z,18.54
2023-03-24T02:29:12.750Z,18.54
2023-03-24T02:32:16.267Z,18.53
2023-03-24T02:35:12.190Z,18.49
2023-03-24T02:38:05.248Z,18.46
2023-03-24T02:40:46.614Z,18.46
2023-03-24T02:43:28.212Z,18.44
2023-03-24T02:46:14.029Z,18.42
2023-03-24T02:49:01.329Z,18.38
2023-03-24T02:51:36.433Z,18.35
2023-03-24T02:54:12.212Z,18.32
2023-03-24T02:56:50.174Z,18.34
2023-03-24T02:59:24.099Z,18.33
2023-03-24T03:02:03.882Z,18.31
2023-03-24T03:04:38.601Z,18.29
2023-03-24T03:07:16.941Z,18.26
2023-03-24T03:09:57.571Z,18.27
2023-03-24T03:12:34.466Z,18.25
2023-03-24T03:15:11.446Z,18.21
2023-03-24T03:17:53.277Z,18.19
2023-03-24T03:20:31.228Z,18.17
2023-03-24T03:23:05.771Z,18.12
2023-03-24T03:25:42.396Z,18.09
2023-03-24T03:28:20.853Z,18.05
2023-03-24T03:30:56.159Z,18.02
2023-03-24T03:33:32.121Z,17.99
2023-03-24T03:36:12.131Z,17.96
2023-03-24T03:38:49.281Z,17.93
2023-03-24T03:41:21.910Z,17.91
2023-03-24T03:43:54.662Z,17.88
2023-03-24T03:46:28.964Z,17.87
2023-03-24T03:49:02.670Z,17.85
2023-03-24T03:51:36.194Z,17.82
2023-03-24T03:54:11.574Z,17.80
2023-03-24T03:56:46.676Z,17.73
2023-03-24T03:59:33.967Z,17.70
2023-03-24T04:02:18.206Z,17.68
2023-03-24T04:05:06.821Z,17.65
2023-03-24T04:07:54.197Z,17.61
2023-03-24T04:10:32.561Z,17.61
2023-03-24T04:13:15.727Z,17.64
2023-03-24T04:15:54.762Z,17.63
2023-03-24T04:18:46.173Z,17.59
2023-03-24T04:21:33.921Z,17.56
2023-03-24T04:24:20.096Z,17.53
2023-03-24T04:27:01.182Z,17.51
2023-03-24T04:29:42.404Z,17.46
2023-03-24T04:32:20.217Z,17.42
2023-03-24T04:35:02.659Z,17.37
2023-03-24T04:37:38.560Z,17.31
2023-03-24T04:40:14.970Z,17.27
2023-03-24T04:42:52.908Z,17.25
2023-03-24T04:45:27.092Z,17.19
2023-03-24T04:48:03.958Z,17.16
2023-03-24T04:50:39.829Z,17.11
2023-03-24T04:53:13.652Z,17.05
2023-03-24T04:56:13.173Z,17.01
2023-03-24T04:58:45.308Z,16.97
2023-03-24T05:01:22.110Z,17.00
2023-03-24T05:03:55.724Z,17.01
2023-03-24T05:06:31.549Z,16.98
2023-03-24T05:09:05.810Z,16.97
2023-03-24T05:11:39.311Z,16.96
2023-03-24T05:14:11.348Z,16.89
2023-03-24T05:16:45.651Z,16.85
2023-03-24T05:19:21.870Z,16.85
2023-03-24T05:21:55.020Z,16.80
2023-03-24T05:24:28.412Z,16.79
2023-03-24T05:27:02.599Z,16.78
2023-03-24T05:29:36.619Z,16.79
2023-03-24T05:32:09.365Z,16.81
2023-03-24T05:34:41.961Z,16.81
2023-03-24T05:37:18.815Z,16.82
2023-03-24T05:39:50.762Z,16.84
2023-03-24T05:42:22.844Z,16.87
2023-03-24T05:44:55.400Z,16.91
2023-03-24T05:47:28.384Z,16.94
2023-03-24T05:50:04.293Z,16.98
2023-03-24T05:52:37.008Z,17.02
2023-03-24T05:55:10.983Z,17.04
2023-03-24T05:57:43.658Z,17.06
2023-03-24T06:00:17.973Z,17.07
2023-03-24T06:02:50.727Z,17.08
2023-03-24T06:05:31.614Z,17.11
2023-03-24T06:08:06.081Z,17.12
2023-03-24T06:10:38.681Z,17.14
2023-03-24T06:13:14.953Z,17.16
2023-03-24T06:15:48.592Z,17.20
2023-03-24T06:18:21.586Z,17.24
2023-03-24T06:20:57.138Z,17.28
2023-03-24T06:23:31.222Z,17.34
2023-03-24T06:26:03.650Z,17.41
2023-03-24T06:28:39.953Z,17.50
2023-03-24T06:31:18.744Z,17.55
2023-03-24T06:33:51.090Z,17.58
2023-03-24T06:36:25.859Z,17.60
2023-03-24T06:38:59.504Z,17.62
2023-03-24T06:41:32.562Z,17.67
2023-03-24T06:44:06.415Z,17.73
2023-03-24T06:46:38.296Z,17.80
2023-03-24T06:49:11.111Z,17.87
2023-03-24T06:51:43.554Z,17.96
2023-03-24T06:54:19.816Z,18.04
2023-03-24T06:56:58.751Z,18.12
2023-03-24T06:59:31.644Z,18.17
2023-03-24T07:02:04.651Z,18.21
2023-03-24T07:04:37.035Z,18.26
2023-03-24T07:07:52.710Z,18.30
2023-03-24T07:10:08.770Z,18.33
2023-03-24T07:12:43.635Z,18.33
2023-03-24T07:15:16.442Z,18.30
2023-03-24T07:17:49.196Z,18.31
2023-03-24T07:20:22.229Z,18.35
2023-03-24T07:22:58.317Z,18.42
2023-03-24T07:25:30.910Z,18.47
2023-03-24T07:28:04.460Z,18.49
2023-03-24T07:30:51.229Z,18.51
2023-03-24T07:33:27.477Z,18.53
2023-03-24T07:36:01.009Z,18.57
2023-03-24T07:38:35.920Z,18.66
2023-03-24T07:41:08.935Z,18.74
2023-03-24T07:43:42.237Z,18.82
2023-03-24T07:46:15.890Z,18.90
2023-03-24T07:48:50.631Z,18.99
2023-03-24T07:51:25.462Z,19.08
2023-03-24T07:53:57.891Z,19.14
2023-03-24T07:56:34.430Z,19.22
2023-03-24T07:59:06.388Z,19.33
2023-03-24T08:01:41.565Z,19.43
2023-03-24T08:04:16.259Z,19.49
2023-03-24T08:06:50.117Z,19.56
2023-03-24T08:09:25.191Z,19.65
2023-03-24T08:12:07.119Z,19.76
2023-03-24T08:14:46.330Z,19.86
2023-03-24T08:17:18.196Z,19.96
2023-03-24T08:20:00.185Z,20.08
2023-03-24T08:22:34.491Z,20.21
2023-03-24T08:25:11.055Z,20.36
2023-03-24T08:27:45.620Z,20.57
2023-03-24T08:30:27.409Z,20.78
2023-03-24T08:33:06.688Z,21.00
2023-03-24T08:35:50.394Z,21.18
2023-03-24T08:38:32.974Z,21.36
2023-03-24T08:41:14.196Z,21.54
2023-03-24T08:43:49.685Z,21.73
2023-03-24T08:46:26.236Z,21.97
2023-03-24T08:49:06.066Z,22.22
2023-03-24T08:51:45.281Z,22.43
2023-03-24T08:54:24.721Z,22.58
2023-03-24T08:57:03.191Z,22.78
2023-03-24T08:59:50.872Z,22.92
2023-03-24T09:02:33.726Z,23.02
2023-03-24T09:05:10.061Z,23.05
2023-03-24T09:07:47.173Z,23.04
2023-03-24T09:10:28.405Z,23.06
2023-03-24T09:13:08.483Z,23.13
2023-03-24T09:15:54.005Z,23.19
2023-03-24T09:18:35.370Z,23.25
2023-03-24T09:21:11.310Z,23.34
2023-03-24T09:23:51.045Z,23.48
2023-03-24T09:26:29.696Z,23.60
2023-03-24T09:29:08.161Z,23.73
2023-03-24T09:31:47.245Z,23.76
2023-03-24T09:34:25.296Z,23.81
2023-03-24T09:37:11.366Z,23.84
2023-03-24T09:39:49.562Z,23.93
2023-03-24T09:42:27.017Z,24.10
2023-03-24T09:45:03.595Z,24.19
2023-03-24T09:47:46.482Z,24.29
2023-03-24T09:50:29.564Z,24.39
2023-03-24T09:53:11.273Z,24.55
2023-03-24T09:55:46.534Z,24.67
2023-03-24T09:58:24.358Z,24.76
2023-03-24T10:00:57.889Z,24.78
2023-03-24T10:03:56.583Z,24.80
2023-03-24T10:06:31.395Z,24.85
2023-03-24T10:09:16.070Z,24.97
2023-03-24T10:11:53.269Z,25.09
2023-03-24T10:14:33.614Z,25.19
2023-03-24T10:17:13.237Z,25.32
2023-03-24T10:19:54.116Z,25.45
2023-03-24T10:22:33.858Z,25.55
2023-03-24T10:25:13.652Z,25.60
2023-03-24T10:27:53.973Z,25.59
2023-03-24T10:30:29.634Z,25.69
2023-03-24T10:33:04.516Z,25.87
2023-03-24T10:35:38.862Z,26.00
2023-03-24T10:38:20.360Z,26.03
2023-03-24T10:40:52.713Z,25.99
2023-03-24T10:43:28.314Z,25.99
2023-03-24T10:46:01.248Z,26.03
2023-03-24T10:48:46.537Z,26.15
2023-03-24T10:51:21.415Z,26.14
2023-03-24T10:53:54.381Z,26.04
2023-03-24T10:56:43.374Z,26.08
2023-03-24T10:59:27.667Z,26.18
2023-03-24T11:02:08.646Z,26.22
2023-03-24T11:04:43.181Z,26.24
2023-03-24T11:07:20.935Z,26.22
2023-03-24T11:10:03.888Z,26.28
2023-03-24T11:12:38.888Z,26.30
2023-03-24T11:15:23.314Z,26.31
2023-03-24T11:18:01.512Z,26.42
2023-03-24T11:20:43.394Z,26.53
2023-03-24T11:23:33.100Z,26.63
2023-03-24T11:26:14.128Z,26.69
2023-03-24T11:28:52.323Z,26.79
2023-03-24T11:31:30.837Z,26.84
2023-03-24T11:34:09.396Z,26.90
2023-03-24T11:36:46.900Z,26.97
2023-03-24T11:39:22.742Z,27.07
2023-03-24T11:42:03.202Z,27.11
2023-03-24T11:44:51.379Z,27.13
2023-03-24T11:47:28.979Z,27.13
2023-03-24T11:50:16.518Z,27.06
2023-03-24T11:52:50.553Z,26.92
2023-03-24T11:55:28.988Z,26.78
2023-03-24T11:58:04.443Z,26.65
2023-03-24T12:00:42.237Z,26.54
2023-03-24T12:03:42.244Z,26.42
2023-03-24T12:06:23.494Z,26.26
2023-03-24T12:09:06.605Z,26.18
2023-03-24T12:11:53.221Z,26.13
2023-03-24T12:14:32.027Z,26.00
2023-03-24T12:17:08.635Z,25.89
2023-03-24T12:20:16.491Z,25.80
2023-03-24T12:22:56.695Z,25.68
2023-03-24T12:25:48.405Z,25.55
2023-03-24T12:28:36.452Z,25.54
2023-03-24T12:31:19.590Z,25.60
2023-03-24T12:33:57.485Z,25.63
2023-03-24T12:36:44.426Z,25.55
2023-03-24T12:39:19.678Z,25.45
2023-03-24T12:42:02.091Z,25.35
2023-03-24T12:45:07.936Z,25.25
2023-03-24T12:47:58.443Z,25.12
2023-03-24T12:50:36.478Z,24.99
2023-03-24T12:53:25.638Z,24.89
2023-03-24T12:56:04.508Z,24.79
2023-03-24T12:58:46.185Z,24.75
2023-03-24T13:01:38.596Z,24.77
2023-03-24T13:04:14.661Z,24.79
2023-03-24T13:06:53.263Z,24.80
2023-03-24T13:09:35.789Z,24.83
2023-03-24T13:12:14.196Z,24.87
2023-03-24T13:14:57.888Z,24.88
2023-03-24T13:17:37.501Z,24.85
2023-03-24T13:20:31.651Z,24.84
2023-03-24T13:23:43.764Z,24.82
2023-03-24T13:26:26.959Z,24.84
2023-03-24T13:29:19.801Z,24.82
2023-03-24T13:31:59.729Z,24.71
2023-03-24T13:34:40.306Z,24.63
2023-03-24T13:37:18.867Z,24.51
2023-03-24T13:39:58.198Z,24.44
2023-03-24T13:42:36.970Z,24.41
2023-03-24T13:45:27.153Z,24.41
2023-03-24T13:48:20.045Z,24.35
2023-03-24T13:50:58.418Z,24.25
2023-03-24T13:53:47.162Z,24.18
2023-03-24T13:56:27.667Z,24.16
2023-03-24T13:59:30.780Z,24.16
2023-03-24T14:02:46.540Z,24.12
2023-03-24T14:05:51.928Z,24.03
2023-03-24T14:08:48.893Z,23.89
2023-03-24T14:11:49.800Z,23.75
2023-03-24T14:14:26.530Z,23.63
2023-03-24T14:17:20.375Z,23.59
2023-03-24T14:20:26.991Z,23.58
2023-03-24T14:23:06.524Z,23.54
2023-03-24T14:25:41.292Z,23.52
2023-03-24T14:28:30.789Z,23.50
2023-03-24T14:31:17.305Z,23.45
2023-03-24T14:34:06.203Z,23.48
2023-03-24T14:36:45.349Z,23.53
2023-03-24T14:39:37.241Z,23.56
2023-03-24T14:43:02.912Z,23.58
2023-03-24T14:46:04.267Z,23.56
2023-03-24T14:48:42.848Z,23.55
2023-03-24T14:51:39.608Z,23.53
2023-03-24T14:54:21.824Z,23.50
2023-03-24T14:57:04.264Z,23.47
2023-03-24T14:59:56.034Z,23.42
2023-03-24T15:02:42.981Z,23.33
2023-03-24T15:05:53.509Z,23.25
2023-03-24T15:08:32.116Z,23.16
2023-03-24T15:11:06.542Z,23.12
2023-03-24T15:13:44.440Z,23.04
2023-03-24T15:16:30.052Z,22.93
2023-03-24T15:19:09.712Z,22.84
2023-03-24T15:21:49.425Z,22.79
2023-03-24T15:24:30.989Z,22.74
2023-03-24T15:27:23.093Z,22.69
2023-03-24T15:29:59.725Z,22.60
2023-03-24T15:32:40.377Z,22.53
2023-03-24T15:35:17.840Z,22.48
2023-03-24T15:37:56.546Z,22.43
2023-03-24T15:40:37.660Z,22.41
2023-03-24T15:43:23.590Z,22.37
2023-03-24T15:46:12.028Z,22.32
2023-03-24T15:48:52.072Z,22.24
2023-03-24T15:51:50.247Z,22.12
2023-03-24T15:54:25.864Z,21.93
2023-03-24T15:57:12.767Z,21.73
2023-03-24T15:59:49.432Z,21.51
2023-03-24T16:02:34.473Z,21.32
2023-03-24T16:05:19.769Z,21.13
2023-03-24T16:08:03.589Z,20.94
2023-03-24T16:10:43.216Z,20.74
2023-03-24T16:13:20.705Z,20.56
2023-03-24T16:16:01.036Z,20.41
2023-03-24T16:18:37.372Z,20.09
2023-03-24T16:21:16.698Z,20.03
2023-03-24T16:23:51.404Z,19.95
2023-03-24T16:26:24.780Z,19.84
2023-03-24T16:29:01.802Z,19.73
2023-03-24T16:31:36.154Z,19.62
2023-03-24T16:34:11.566Z,19.52
2023-03-24T16:36:44.959Z,19.47
2023-03-24T16:39:18.769Z,19.40
2023-03-24T16:41:52.997Z,19.33
2023-03-24T16:44:27.202Z,19.27
2023-03-24T16:47:01.844Z,19.20
2023-03-24T16:49:38.112Z,19.12
2023-03-24T16:52:16.096Z,18.99
2023-03-24T16:54:52.949Z,18.89
2023-03-24T16:57:25.507Z,18.79
2023-03-24T17:00:01.454Z,18.70
2023-03-24T17:02:37.872Z,18.62
2023-03-24T20:19:11.544Z,16.65
2023-03-24T20:21:40.883Z,16.65
2023-03-24T20:24:11.168Z,16.67
2023-03-24T20:26:42.708Z,16.70
2023-03-24T20:29:12.750Z,16.72
2023-03-24T20:31:42.922Z,16.70
2023-03-24T20:34:11.720Z,16.72
2023-03-24T20:36:42.802Z,16.72
2023-03-24T20:39:18.543Z,16.71
2023-03-24T20:41:49.406Z,16.69
2023-03-24T20:44:17.960Z,16.70
2023-03-24T20:46:48.161Z,16.70
2023-03-24T20:49:17.186Z,16.69
2023-03-24T20:51:46.905Z,16.67
2023-03-24T20:54:16.996Z,16.63
2023-03-24T20:56:46.691Z,16.61
2023-03-24T20:59:18.325Z,16.61
2023-03-24T21:01:49.472Z,16.64
2023-03-24T21:04:19.755Z,16.68
2023-03-24T21:06:48.740Z,16.68
2023-03-24T21:09:21.724Z,16.70
2023-03-24T21:11:50.362Z,16.73
2023-03-24T21:14:21.372Z,16.75
2023-03-24T21:16:52.156Z,16.76
2023-03-24T21:19:22.320Z,16.76
2023-03-24T21:21:51.171Z,16.78
2023-03-24T21:24:25.008Z,16.78
2023-03-24T21:26:56.448Z,16.77
2023-03-24T21:29:27.393Z,16.77
2023-03-24T21:31:57.624Z,16.78
2023-03-24T21:34:28.442Z,16.79
2023-03-24T21:37:00.928Z,16.80
2023-03-24T21:39:32.903Z,16.83
2023-03-24T21:42:02.787Z,16.84
2023-03-24T21:44:33.960Z,16.81
2023-03-24T21:47:02.557Z,16.79
2023-03-24T21:49:33.294Z,16.79
2023-03-24T21:52:04.194Z,16.78
2023-03-24T21:54:34.220Z,16.79
2023-03-24T21:57:03.400Z,16.80
2023-03-24T21:59:37.142Z,16.79
2023-03-24T22:02:13.795Z,16.80
2023-03-24T22:04:46.495Z,16.82
2023-03-24T22:07:21.876Z,16.83
2023-03-24T22:09:56.221Z,16.83
2023-03-24T22:12:26.599Z,16.85
2023-03-24T22:14:55.841Z,16.86
2023-03-24T22:17:30.174Z,16.88
2023-03-24T22:19:58.739Z,16.90
2023-03-24T22:22:29.365Z,16.95
2023-03-24T22:24:57.959Z,16.98
2023-03-24T22:27:26.703Z,16.99
2023-03-24T22:29:55.169Z,17.01
2023-03-24T22:32:24.335Z,17.05
2023-03-24T22:34:52.837Z,17.03
2023-03-24T22:37:21.338Z,17.06
2023-03-24T22:39:49.927Z,17.10
2023-03-24T22:42:18.386Z,17.10
2023-03-24T22:44:46.910Z,17.12
2023-03-24T22:47:15.577Z,17.16
2023-03-24T22:49:47.309Z,17.18
2023-03-24T22:52:15.811Z,17.18
2023-03-24T22:54:44.360Z,17.19
2023-03-24T22:57:13.408Z,17.18
2023-03-24T22:59:41.769Z,17.17
2023-03-24T23:02:10.700Z,17.18
2023-03-24T23:04:39.850Z,17.16
2023-03-24T23:07:08.518Z,17.16
2023-03-24T23:09:37.686Z,17.13
2023-03-24T23:12:07.006Z,17.15
2023-03-24T23:14:37.473Z,17.12
2023-03-24T23:17:08.847Z,17.08
2023-03-24T23:19:37.883Z,17.07
2023-03-24T23:22:07.676Z,17.06
2023-03-24T23:24:38.744Z,17.05
2023-03-24T23:27:07.243Z,17.06
2023-03-24T23:29:39.639Z,17.07
2023-03-24T23:32:08.443Z,17.00
2023-03-24T23:34:37.465Z,16.94
2023-03-24T23:37:05.840Z,16.92
2023-03-24T23:39:36.072Z,16.94
2023-03-24T23:42:05.206Z,16.92
2023-03-24T23:44:33.755Z,16.89
2023-03-24T23:47:02.284Z,16.86
2023-03-24T23:49:30.856Z,16.88
2023-03-24T23:51:59.200Z,16.87
2023-03-24T23:54:28.540Z,16.86
2023-03-24T23:56:56.974Z,16.83
2023-03-24T23:59:25.489Z,16.85
